createdAt,value
2019-04-06T00:00:25.543Z,24.00
2019-04-06T00:03:29.931Z,23.73
2019-04-06T00:06:34.286Z,22.90
2019-04-06T00:09:38.679Z,23.00
2019-04-06T00:12:43.035Z,24.10
2019-04-06T00:15:47.435Z,23.10
2019-04-06T00:18:51.775Z,22.70
2019-04-06T00:21:56.093Z,23.00
2019-04-06T00:25:00.448Z,23.93
2019-04-06T00:28:05.131Z,22.37
2019-04-06T00:31:27.370Z,24.30
2019-04-06T00:34:31.755Z,24.30
2019-04-06T00:37:36.116Z,22.70
2019-04-06T00:40:40.475Z,23.13
2019-04-06T00:43:44.851Z,23.60
2019-04-06T00:46:49.211Z,22.73
2019-04-06T00:49:53.661Z,23.27
2019-04-06T00:52:58.120Z,22.53
2019-04-06T00:56:02.788Z,22.70
2019-04-06T00:59:07.133Z,22.27
2019-04-06T01:02:11.499Z,21.13
2019-04-06T01:05:15.967Z,22.60
2019-04-06T01:08:20.243Z,21.57
2019-04-06T01:11:24.642Z,21.63
2019-04-06T01:14:29.233Z,21.27
2019-04-06T01:17:33.809Z,21.27
2019-04-06T01:20:38.272Z,20.33
2019-04-06T01:23:42.678Z,19.80
2019-04-06T01:26:47.002Z,19.50
2019-04-06T01:29:51.368Z,20.37
2019-04-06T01:32:55.822Z,20.77
2019-04-06T01:36:00.215Z,20.30
2019-04-06T01:39:06.003Z,19.83
2019-04-06T01:42:10.346Z,20.50
2019-04-06T01:45:14.642Z,20.17
2019-04-06T01:48:19.099Z,19.47
2019-04-06T01:51:23.525Z,20.10
2019-04-06T01:54:27.951Z,19.37
2019-04-06T01:57:32.280Z,19.80
2019-04-06T02:00:36.674Z,19.67
2019-04-06T02:03:41.066Z,18.83
2019-04-06T02:06:45.443Z,19.27
2019-04-06T02:09:49.803Z,19.97
2019-04-06T02:12:54.206Z,18.47
2019-04-06T02:15:58.552Z,19.17
2019-04-06T02:19:02.924Z,18.67
2019-04-06T02:22:07.207Z,18.77
2019-04-06T02:25:11.696Z,18.13
2019-04-06T02:28:16.046Z,18.07
2019-04-06T02:31:31.935Z,17.70
2019-04-06T02:34:55.220Z,17.03
2019-04-06T02:38:06.158Z,18.67
2019-04-06T02:41:40.434Z,17.03
2019-04-06T02:44:44.821Z,17.57
2019-04-06T02:47:49.336Z,16.07
2019-04-06T02:50:53.944Z,16.77
2019-04-06T02:53:58.309Z,18.07
2019-04-06T02:57:02.687Z,16.57
2019-04-06T03:00:07.974Z,16.13
2019-04-06T03:03:12.416Z,16.80
2019-04-06T03:06:16.808Z,15.90
2019-04-06T03:09:21.111Z,17.03
2019-04-06T03:12:25.473Z,15.13
2019-04-06T03:15:29.871Z,17.47
2019-04-06T03:18:34.222Z,15.23
2019-04-06T03:21:38.534Z,15.07
2019-04-06T03:24:42.912Z,15.70
2019-04-06T03:27:47.559Z,15.70
2019-04-06T03:30:52.041Z,16.50
2019-04-06T03:33:56.429Z,15.00
2019-04-06T03:37:00.812Z,14.50
2019-04-06T03:40:07.043Z,15.57
2019-04-06T03:43:11.381Z,14.30
2019-04-06T03:46:15.775Z,14.40
2019-04-06T03:49:20.133Z,13.83
2019-04-06T03:52:24.530Z,13.57
2019-04-06T03:55:28.891Z,13.83
2019-04-06T03:58:33.283Z,13.73
2019-04-06T04:01:37.619Z,14.23
2019-04-06T04:04:41.917Z,13.83
2019-04-06T04:07:46.293Z,13.67
2019-04-06T04:10:50.879Z,13.17
2019-04-06T04:13:55.333Z,13.47
2019-04-06T04:16:59.708Z,13.20
2019-04-06T04:20:04.716Z,13.07
2019-04-06T04:23:09.096Z,13.53
2019-04-06T04:26:13.512Z,13.27
2019-04-06T04:29:18.007Z,13.57
2019-04-06T04:32:22.448Z,13.60
2019-04-06T04:35:27.086Z,14.60
2019-04-06T04:38:31.692Z,13.43
2019-04-06T04:41:39.236Z,14.07
2019-04-06T04:44:42.233Z,13.80
2019-04-06T04:47:46.619Z,13.77
2019-04-06T04:50:51.030Z,12.67
2019-04-06T04:53:55.359Z,12.63
2019-04-06T04:56:59.748Z,12.70
2019-04-06T05:00:04.988Z,13.90
2019-04-06T05:03:09.361Z,14.07
2019-04-06T05:06:13.743Z,13.67
2019-04-06T05:09:18.104Z,13.70
2019-04-06T05:12:22.471Z,13.27
2019-04-06T05:15:48.937Z,13.73
2019-04-06T05:18:53.390Z,14.07
2019-04-06T05:22:00.741Z,13.30
2019-04-06T05:25:06.015Z,13.50
2019-04-06T05:28:10.518Z,13.70
2019-04-06T05:31:15.061Z,13.27
2019-04-06T05:34:19.488Z,13.03
2019-04-06T05:37:23.881Z,13.43
2019-04-06T05:40:28.258Z,14.07
2019-04-06T05:43:32.653Z,13.03
2019-04-06T05:46:36.991Z,13.40
2019-04-06T05:49:41.388Z,13.20
2019-04-06T05:52:45.905Z,14.07
2019-04-06T05:55:50.325Z,14.10
2019-04-06T05:58:54.662Z,14.17
2019-04-06T06:01:59.065Z,13.80
2019-04-06T06:05:03.569Z,13.83
2019-04-06T06:08:08.013Z,14.47
2019-04-06T06:11:12.379Z,12.63
2019-04-06T06:14:16.788Z,12.77
2019-04-06T06:17:21.127Z,13.00
2019-04-06T06:20:25.489Z,13.30
2019-04-06T06:23:29.997Z,13.23
2019-04-06T06:26:34.378Z,13.97
2019-04-06T06:29:38.771Z,13.37
2019-04-06T06:32:43.190Z,14.47
2019-04-06T06:35:47.612Z,14.13
2019-04-06T06:38:52.019Z,13.07
2019-04-06T06:41:56.393Z,13.53
2019-04-06T06:45:00.796Z,13.33
2019-04-06T06:48:05.282Z,14.40
2019-04-06T06:51:09.844Z,14.93
2019-04-06T06:54:14.197Z,13.37
2019-04-06T06:57:18.592Z,14.00
2019-04-06T07:00:23.043Z,14.47
2019-04-06T07:03:30.192Z,13.77
2019-04-06T07:06:34.492Z,14.17
2019-04-06T07:09:38.909Z,14.10
2019-04-06T07:12:43.484Z,14.33
2019-04-06T07:15:48.452Z,13.97
2019-04-06T07:18:52.827Z,13.93
2019-04-06T07:21:57.257Z,13.73
2019-04-06T07:25:01.624Z,14.60
2019-04-06T07:28:06.020Z,13.93
2019-04-06T07:31:10.554Z,14.17
2019-04-06T07:34:15.073Z,13.87
2019-04-06T07:37:19.428Z,15.10
2019-04-06T07:40:24.234Z,13.70
2019-04-06T07:43:28.691Z,14.70
2019-04-06T07:46:35.407Z,14.23
2019-04-06T07:49:40.069Z,14.20
2019-04-06T07:52:44.498Z,15.53
2019-04-06T07:55:48.883Z,14.13
2019-04-06T07:58:53.295Z,15.30
2019-04-06T08:01:57.665Z,15.67
2019-04-06T08:05:02.050Z,14.93
2019-04-06T08:08:06.412Z,16.17
2019-04-06T08:11:10.808Z,14.97
2019-04-06T08:14:15.084Z,14.70
2019-04-06T08:17:19.588Z,15.37
2019-04-06T08:20:23.892Z,15.50
2019-04-06T08:23:28.457Z,15.73
2019-04-06T08:26:32.939Z,16.10
2019-04-06T08:29:37.634Z,16.83
2019-04-06T08:32:42.033Z,16.83
2019-04-06T08:35:46.454Z,16.43
2019-04-06T08:38:50.801Z,16.77
2019-04-06T08:41:55.143Z,14.83
2019-04-06T08:44:59.486Z,15.77
2019-04-06T08:48:03.910Z,15.80
2019-04-06T08:51:11.312Z,15.73
2019-04-06T08:54:15.776Z,15.10
2019-04-06T08:57:22.462Z,15.40
2019-04-06T09:00:26.186Z,15.90
2019-04-06T09:03:31.264Z,16.97
2019-04-06T09:06:35.730Z,16.70
2019-04-06T09:09:40.123Z,17.40
2019-04-06T09:12:44.527Z,16.40
2019-04-06T09:15:48.864Z,17.43
2019-04-06T09:18:53.192Z,16.87
2019-04-06T09:21:58.166Z,16.63
2019-04-06T09:25:02.598Z,15.67
2019-04-06T09:28:07.013Z,16.77
2019-04-06T09:31:11.392Z,16.97
2019-04-06T09:34:15.998Z,16.83
2019-04-06T09:37:20.379Z,16.53
2019-04-06T09:40:24.852Z,16.67
2019-04-06T09:43:29.270Z,15.57
2019-04-06T09:46:58.682Z,17.00
2019-04-06T09:50:20.889Z,16.00
2019-04-06T09:53:47.166Z,16.10
2019-04-06T09:57:16.491Z,17.47
2019-04-06T10:00:32.161Z,15.80
2019-04-06T10:03:54.205Z,16.57
2019-04-06T10:07:23.305Z,17.23
2019-04-06T10:10:46.041Z,16.10
2019-04-06T10:14:27.954Z,16.97
2019-04-06T10:18:06.198Z,18.23
2019-04-06T10:21:28.956Z,17.70
2019-04-06T10:24:55.442Z,17.70
2019-04-06T10:28:18.782Z,16.37
2019-04-06T10:31:47.957Z,16.47
2019-04-06T10:35:18.606Z,18.00
2019-04-06T10:38:40.171Z,18.33
2019-04-06T10:42:02.429Z,17.53
2019-04-06T10:45:35.334Z,16.43
2019-04-06T10:48:53.727Z,16.83
2019-04-06T10:52:22.875Z,16.33
2019-04-06T10:55:51.698Z,16.87
2019-04-06T10:59:11.508Z,17.60
2019-04-06T11:02:34.877Z,16.53
2019-04-06T11:06:10.474Z,16.30
2019-04-06T11:09:33.768Z,17.27
2019-04-06T11:12:59.897Z,17.53
2019-04-06T11:16:18.734Z,17.53
2019-04-06T11:19:46.483Z,16.13
2019-04-06T11:22:59.855Z,15.83
2019-04-06T11:26:38.604Z,17.10
2019-04-06T11:30:13.695Z,17.80
2019-04-06T11:33:34.757Z,16.67
2019-04-06T11:36:55.973Z,16.90
2019-04-06T11:40:18.124Z,16.53
2019-04-06T11:43:35.135Z,17.00
2019-04-06T11:46:47.558Z,16.30
2019-04-06T11:50:17.413Z,17.67
2019-04-06T11:53:40.801Z,17.17
2019-04-06T11:57:10.056Z,17.80
2019-04-06T12:00:33.708Z,17.40
2019-04-06T12:04:00.182Z,18.40
2019-04-06T12:07:30.380Z,18.13
2019-04-06T12:11:10.040Z,18.43
2019-04-06T12:14:30.867Z,18.17
2019-04-06T12:18:00.039Z,17.37
2019-04-06T12:21:12.787Z,17.50
2019-04-06T12:24:34.749Z,18.03
2019-04-06T12:28:05.338Z,18.17
2019-04-06T12:31:25.623Z,20.03
2019-04-06T12:34:47.923Z,19.47
2019-04-06T12:38:07.070Z,22.57
2019-04-06T12:41:21.570Z,22.43
2019-04-06T12:44:49.679Z,21.07
2019-04-06T12:48:16.163Z,21.97
2019-04-06T12:51:38.482Z,23.13
2019-04-06T12:54:56.955Z,25.93
2019-04-06T12:58:16.968Z,25.00
2019-04-06T13:01:40.230Z,29.57
2019-04-06T13:05:02.533Z,32.17
2019-04-06T13:08:29.321Z,32.53
2019-04-06T13:11:50.592Z,29.77
2019-04-06T13:15:05.159Z,29.57
2019-04-06T13:18:17.428Z,29.40
2019-04-06T13:21:36.551Z,27.93
2019-04-06T13:24:53.874Z,29.13
2019-04-06T13:28:15.834Z,29.03
2019-04-06T13:31:41.978Z,28.43
2019-04-06T13:35:14.295Z,29.00
2019-04-06T13:38:32.367Z,29.53
2019-04-06T13:41:58.665Z,28.30
2019-04-06T13:45:20.813Z,28.43
2019-04-06T13:48:32.721Z,29.60
2019-04-06T13:52:07.915Z,28.40
2019-04-06T13:55:30.350Z,28.33
2019-04-06T13:58:44.225Z,28.63
2019-04-06T14:02:16.641Z,29.57
2019-04-06T14:05:30.388Z,29.27
2019-04-06T14:08:44.419Z,31.33
2019-04-06T14:12:10.747Z,30.87
2019-04-06T14:15:43.303Z,33.30
2019-04-06T14:19:00.932Z,30.40
2019-04-06T14:22:27.248Z,31.67
2019-04-06T14:25:53.007Z,31.43
2019-04-06T14:29:18.476Z,34.17
2019-04-06T14:32:34.599Z,32.77
2019-04-06T14:35:52.746Z,31.83
2019-04-06T14:39:22.242Z,31.40
2019-04-06T14:42:48.366Z,31.60
2019-04-06T14:46:17.450Z,31.40
2019-04-06T14:49:37.472Z,31.17
2019-04-06T14:52:59.404Z,31.87
2019-04-06T14:56:31.068Z,32.03
2019-04-06T15:00:12.660Z,32.00
2019-04-06T15:03:26.395Z,32.60
2019-04-06T15:06:52.810Z,33.57
2019-04-06T15:10:04.357Z,36.67
2019-04-06T15:13:17.813Z,38.53
2019-04-06T15:16:28.835Z,40.70
2019-04-06T15:19:52.258Z,38.90
2019-04-06T15:23:21.636Z,46.43
2019-04-06T15:26:33.162Z,47.23
2019-04-06T15:30:08.891Z,45.33
2019-04-06T15:33:22.798Z,39.13
2019-04-06T15:36:44.552Z,37.27
2019-04-06T15:40:18.362Z,36.33
2019-04-06T15:43:40.839Z,36.53
2019-04-06T15:47:02.832Z,37.27
2019-04-06T15:50:25.440Z,35.03
2019-04-06T15:53:47.554Z,36.00
2019-04-06T15:57:01.100Z,34.23
2019-04-06T16:00:29.302Z,38.63
2019-04-06T16:03:44.058Z,42.43
2019-04-06T16:07:14.025Z,40.23
2019-04-06T16:10:40.569Z,39.67
2019-04-06T16:14:03.929Z,38.53
2019-04-06T16:17:19.282Z,38.47
2019-04-06T16:20:38.499Z,39.20
2019-04-06T16:24:02.244Z,38.20
2019-04-06T16:27:18.864Z,39.27
2019-04-06T16:30:51.907Z,38.30
2019-04-06T16:34:04.603Z,36.20
2019-04-06T16:37:16.289Z,37.43
2019-04-06T16:40:37.625Z,35.77
2019-04-06T16:44:13.031Z,36.03
2019-04-06T16:47:36.870Z,37.37
2019-04-06T16:51:04.275Z,37.10
2019-04-06T16:54:32.932Z,37.50
2019-04-06T16:58:02.104Z,38.97
2019-04-06T17:01:24.277Z,38.63
2019-04-06T17:04:47.645Z,38.47
2019-04-06T17:08:10.184Z,35.07
2019-04-06T17:11:26.733Z,35.90
2019-04-06T17:14:50.443Z,34.53
2019-04-06T17:18:13.167Z,34.37
2019-04-06T17:21:26.946Z,32.70
2019-04-06T17:24:37.914Z,32.63
2019-04-06T17:27:56.186Z,32.50
2019-04-06T17:31:13.613Z,30.20
2019-04-06T17:34:36.938Z,29.40
2019-04-06T17:38:00.796Z,29.43
2019-04-06T17:41:39.702Z,26.37
2019-04-06T17:45:07.017Z,27.57
2019-04-06T17:48:33.994Z,28.77
2019-04-06T17:51:47.648Z,29.83
2019-04-06T17:55:20.303Z,27.97
2019-04-06T17:58:36.230Z,26.33
2019-04-06T18:02:06.550Z,27.27
2019-04-06T18:05:25.283Z,26.00
2019-04-06T18:08:58.028Z,25.97
2019-04-06T18:12:18.537Z,26.50
2019-04-06T18:15:22.987Z,30.80
2019-04-06T18:18:31.920Z,32.53
2019-04-06T18:21:41.107Z,34.57
2019-04-06T18:24:46.769Z,35.73
2019-04-06T18:27:58.462Z,37.57
2019-04-06T18:31:15.877Z,33.97
2019-04-06T18:34:20.254Z,35.37
2019-04-06T18:37:43.882Z,34.73
2019-04-06T18:40:48.900Z,33.30
2019-04-06T18:43:53.520Z,31.40
2019-04-06T18:47:04.300Z,28.73
2019-04-06T18:50:09.137Z,26.87
2019-04-06T18:53:13.681Z,24.53
2019-04-06T18:56:20.389Z,27.60
2019-04-06T18:59:25.031Z,28.27
2019-04-06T19:02:29.473Z,30.63
2019-04-06T19:05:33.952Z,31.70
2019-04-06T19:08:39.177Z,30.97
2019-04-06T19:11:53.709Z,30.07
2019-04-06T19:14:49.816Z,27.33
2019-04-06T19:18:02.110Z,24.83
2019-04-06T19:21:07.318Z,55.97
2019-04-06T19:24:12.189Z,99.67
2019-04-06T19:27:16.796Z,77.67
2019-04-06T19:30:21.726Z,73.03
2019-04-06T19:33:28.377Z,63.07
2019-04-06T19:36:33.045Z,59.23
2019-04-06T19:39:37.689Z,54.00
2019-04-06T19:42:42.229Z,54.10
2019-04-06T19:45:48.721Z,47.43
2019-04-06T19:48:53.081Z,48.07
2019-04-06T19:51:57.823Z,41.50
2019-04-06T19:55:02.524Z,39.43
2019-04-06T19:58:07.125Z,38.00
2019-04-06T20:01:11.648Z,37.23
2019-04-06T20:04:16.110Z,35.90
2019-04-06T20:07:20.667Z,32.27
2019-04-06T20:10:25.193Z,33.90
2019-04-06T20:13:29.787Z,27.03
2019-04-06T20:16:36.439Z,29.00
2019-04-06T20:19:40.832Z,29.23
2019-04-06T20:22:45.754Z,27.53
2019-04-06T20:25:50.348Z,27.23
2019-04-06T20:28:54.927Z,29.37
2019-04-06T20:31:59.805Z,28.70
2019-04-06T20:35:05.752Z,28.67
2019-04-06T20:38:10.458Z,41.90
2019-04-06T20:41:15.277Z,69.70
2019-04-06T20:44:20.024Z,75.63
2019-04-06T20:47:24.439Z,53.40
2019-04-06T20:50:28.815Z,50.63
2019-04-06T20:53:33.240Z,50.57
2019-04-06T20:56:37.643Z,53.90
2019-04-06T20:59:42.551Z,58.40
2019-04-06T21:02:48.619Z,53.43
2019-04-06T21:05:53.287Z,51.30
2019-04-06T21:08:57.657Z,49.27
2019-04-06T21:12:02.514Z,50.93
2019-04-06T21:15:17.641Z,63.60
2019-04-06T21:18:14.569Z,74.07
2019-04-06T21:21:19.438Z,64.47
2019-04-06T21:24:23.918Z,57.17
2019-04-06T21:27:28.814Z,55.17
2019-04-06T21:30:33.429Z,52.30
2019-04-06T21:33:37.925Z,50.10
2019-04-06T21:36:42.663Z,46.03
2019-04-06T21:39:47.108Z,45.20
2019-04-06T21:42:51.533Z,43.40
2019-04-06T21:45:56.477Z,36.03
2019-04-06T21:49:01.236Z,37.87
2019-04-06T21:52:05.680Z,35.40
2019-04-06T21:55:13.775Z,37.33
2019-04-06T21:58:18.744Z,35.37
2019-04-06T22:01:24.026Z,36.30
2019-04-06T22:04:28.354Z,36.10
2019-04-06T22:07:32.722Z,35.30
2019-04-06T22:10:37.079Z,32.50
2019-04-06T22:13:41.880Z,34.20
2019-04-06T22:16:46.443Z,31.10
2019-04-06T22:19:50.825Z,31.03
2019-04-06T22:22:55.276Z,29.90
2019-04-06T22:25:59.667Z,29.10
2019-04-06T22:29:04.021Z,30.27
2019-04-06T22:32:08.712Z,30.23
2019-04-06T22:35:13.527Z,27.77
2019-04-06T22:38:17.976Z,27.73
2019-04-06T22:41:22.837Z,26.77
2019-04-06T22:44:27.258Z,26.30
2019-04-06T22:47:31.903Z,26.80
2019-04-06T22:50:36.581Z,26.47
2019-04-06T22:53:41.102Z,25.50
2019-04-06T22:56:45.506Z,25.47
2019-04-06T22:59:49.838Z,25.73
2019-04-06T23:03:12.490Z,25.50
2019-04-06T23:06:21.948Z,24.73
2019-04-06T23:09:26.841Z,24.40
2019-04-06T23:12:31.460Z,26.20
2019-04-06T23:15:35.872Z,23.53
2019-04-06T23:18:40.232Z,24.20
2019-04-06T23:21:44.601Z,24.17
2019-04-06T23:24:48.954Z,23.47
2019-04-06T23:27:53.378Z,24.80
2019-04-06T23:30:58.556Z,22.57
2019-04-06T23:34:03.380Z,23.67
2019-04-06T23:37:08.398Z,23.93
2019-04-06T23:40:13.306Z,22.50
2019-04-06T23:43:17.679Z,24.33
2019-04-06T23:46:22.354Z,22.87
2019-04-06T23:49:27.482Z,23.27
2019-04-06T23:52:31.989Z,23.13
2019-04-06T23:55:36.597Z,23.37
2019-04-06T23:58:41.007Z,23.73
